McMilan Corner, Arkansas
Current Conditions -  °F | °C
As of 4:53 PM on Monday 24 Nov 2014 (Local Time) from KGLH Reporting Station
Clear Clear  
Wind Chill: 54°   Ceiling: Unl
Heat Index: 54°   Visibility: 7mi
Dew Point: 35°   Wind: 5mph
Humidity: 49%   Direction: 270°W
Pressure: 29.99"   Gusts: NA
Location:  33.3324°N, 91.3183°W
Report Text: KGLH 242253Z AUTO 27004KT 7SM CLR 12/02 A2999 RMK AO2 SLP163 T01220017
Loading
Personal Weather Stations






























Interactive Weather Map New forecast layout! Learn more

10-Day Weather Forecast

Advertisements
Track Severe Weather on mobile